Aviation Digital Data Service (ADDS)

Output produced by METARs form (1351 UTC 05 June 2023)
found at http://www.aviationweather.gov/metar/data/
 
DTTA 051330Z 09008KT 010V170 9999 SCT023TCU SCT033 26/14 Q1013
TAF DTTA 051100Z 0512/0612 VRB07G17KT 9999 SCT023TCU 
     BECMG 0516/0518 09010KT 8000 SCT020
       
DTTR 051300Z 29011KT 250V320 8000 NSC 36/11 Q1006
TAF DTTR 051200Z 0513/0522 26010KT 8000 NSC 
     BECMG 0516/0518 34015KT
       
DTTG 051300Z 03014KT 360V060 5000 SCT020 26/18 Q1009 NOSIG
TAF DTTG 051200Z 0513/0522 04014KT 5000 SCT020 SCT030 
     PROB40 
     TEMPO 0518/0522 02014G24KT 3000 SA
       
DTTF 051300Z 04022KT 010V080 8000 BKN023 24/16 Q1011 NOSIG
TAF DTTF 051200Z 0513/0522 06022KT 8000 SCT026 SCT033 
     PROB40 
     TEMPO 0516/0522 03022G32KT 3000 SA
       
DTMB 051330Z 06018KT 8000 SCT023 BKN030 22/20 Q1011
TAF DTMB 051100Z 0512/0612 07019KT 9999 SCT023 
     PROB30 
     TEMPO 0603/0605 02015KT 4000 TSRA FEW023CB
       
DTTZ 051300Z 03018KT 360V060 3000 SA NSC 29/16 Q1008
TAF DTTZ 051100Z 0512/0612 03016KT 2000 SA FEW033 
     BECMG 0512/0514 6000 NSC
       
DTTD 051300Z 05006KT 350V100 6000 SCT026 31/14 Q1007
DTTB 051300Z 07011KT 040V100 9999 SCT020 SCT030 26/16 Q1013
TAF DTTB 051200Z 0513/0522 06011KT 9999 SCT020 SCT030 
     PROB30 
     TEMPO 0513/0516 -TSRA SCT020 FEW023CB SCT030
       
DTKA 051300Z 32007KT 9999 SCT020TCU SCT030 22/18 Q1014 NOSIG
TAF DTKA 051200Z 0513/0522 30008KT 9999 SCT020
       
DTTX 051300Z 04011KT 360V070 8000 FEW020 SCT033 25/18 Q1009
TAF DTTX 051100Z 0512/0612 04012KT 9999 FEW020 
     BECMG 0600/0602 02020KT
       
DTTJ 051330Z 02015KT 8000 R09///// FEW033 24/19 Q1008 NOSIG
TAF DTTJ 051100Z 0512/0612 03011KT 8000 FEW033